sensor_id;sensor_type;location;lat;lon;timestamp;temperature;humidity
16838;DHT22;19510;54.486;9.046;2022-10-18T03:37:53;14.00;99.90
16838;DHT22;19510;54.486;9.046;2022-10-18T03:40:23;14.00;99.90
16838;DHT22;19510;54.486;9.046;2022-10-18T03:42:48;14.00;99.90
16838;DHT22;19510;54.486;9.046;2022-10-18T03:45:14;13.90;99.90
16838;DHT22;19510;54.486;9.046;2022-10-18T03:47:40;13.90;99.90
16838;DHT22;19510;54.486;9.046;2022-10-18T03:50:05;14.00;99.90
16838;DHT22;19510;54.486;9.046;2022-10-18T03:52:32;13.90;99.90
16838;DHT22;19510;54.486;9.046;2022-10-18T03:54:58;13.90;99.90
16838;DHT22;19510;54.486;9.046;2022-10-18T03:57:26;13.90;99.90
16838;DHT22;19510;54.486;9.046;2022-10-18T03:59:52;13.90;99.90
16838;DHT22;19510;54.486;9.046;2022-10-18T04:02:18;13.80;99.90
16838;DHT22;19510;54.486;9.046;2022-10-18T04:04:43;13.80;99.90
16838;DHT22;19510;54.486;9.046;2022-10-18T04:07:09;13.80;99.90
16838;DHT22;19510;54.486;9.046;2022-10-18T04:09:36;13.80;99.90
16838;DHT22;19510;54.486;9.046;2022-10-18T04:12:02;13.80;99.90
16838;DHT22;19510;54.486;9.046;2022-10-18T04:14:28;13.80;99.90
16838;DHT22;19510;54.486;9.046;2022-10-18T04:16:53;13.80;99.90
16838;DHT22;19510;54.486;9.046;2022-10-18T04:19:19;13.80;99.90
16838;DHT22;19510;54.486;9.046;2022-10-18T04:21:45;13.80;99.90
16838;DHT22;19510;54.486;9.046;2022-10-18T04:24:10;13.80;99.90
16838;DHT22;19510;54.486;9.046;2022-10-18T04:26:36;13.80;99.90
16838;DHT22;19510;54.486;9.046;2022-10-18T04:29:02;13.80;99.90
16838;DHT22;19510;54.486;9.046;2022-10-18T04:31:30;13.70;99.90
16838;DHT22;19510;54.486;9.046;2022-10-18T04:33:56;13.90;99.90
16838;DHT22;19510;54.486;9.046;2022-10-18T04:36:24;13.80;99.90
16838;DHT22;19510;54.486;9.046;2022-10-18T04:38:49;13.90;99.90
16838;DHT22;19510;54.486;9.046;2022-10-18T04:41:15;13.90;99.90
16838;DHT22;19510;54.486;9.046;2022-10-18T04:43:40;13.90;99.90
16838;DHT22;19510;54.486;9.046;2022-10-18T04:46:10;13.90;99.90
16838;DHT22;19510;54.486;9.046;2022-10-18T04:48:36;13.90;99.90
16838;DHT22;19510;54.486;9.046;2022-10-18T04:51:02;13.80;99.90
16838;DHT22;19510;54.486;9.046;2022-10-18T04:53:27;13.90;99.90
16838;DHT22;19510;54.486;9.046;2022-10-18T04:55:53;13.90;99.90
16838;DHT22;19510;54.486;9.046;2022-10-18T04:58:19;13.90;99.90
16838;DHT22;19510;54.486;9.046;2022-10-18T05:00:45;13.80;99.90
16838;DHT22;19510;54.486;9.046;2022-10-18T05:03:12;13.80;99.90
16838;DHT22;19510;54.486;9.046;2022-10-18T05:05:38;13.80;99.90
16838;DHT22;19510;54.486;9.046;2022-10-18T05:08:04;13.90;99.90
16838;DHT22;19510;54.486;9.046;2022-10-18T05:10:33;13.80;99.90
16838;DHT22;19510;54.486;9.046;2022-10-18T05:13:03;13.80;99.90
16838;DHT22;19510;54.486;9.046;2022-10-18T05:15:29;13.80;99.90
16838;DHT22;19510;54.486;9.046;2022-10-18T05:17:54;13.80;99.90
16838;DHT22;19510;54.486;9.046;2022-10-18T05:20:20;13.80;99.90
16838;DHT22;19510;54.486;9.046;2022-10-18T05:22:46;13.80;99.90
16838;DHT22;19510;54.486;9.046;2022-10-18T05:25:11;13.80;99.90
16838;DHT22;19510;54.486;9.046;2022-10-18T05:27:37;13.80;99.90
16838;DHT22;19510;54.486;9.046;2022-10-18T05:30:03;13.70;99.90
16838;DHT22;19510;54.486;9.046;2022-10-18T05:32:29;13.80;99.90
16838;DHT22;19510;54.486;9.046;2022-10-18T05:34:54;13.70;99.90
16838;DHT22;19510;54.486;9.046;2022-10-18T05:37:20;13.80;99.90
16838;DHT22;19510;54.486;9.046;2022-10-18T05:39:46;13.80;99.90
16838;DHT22;19510;54.486;9.046;2022-10-18T05:42:12;13.70;99.90
16838;DHT22;19510;54.486;9.046;2022-10-18T05:44:37;13.80;99.90
16838;DHT22;19510;54.486;9.046;2022-10-18T05:47:03;13.80;99.90
16838;DHT22;19510;54.486;9.046;2022-10-18T05:49:29;13.70;99.90
16838;DHT22;19510;54.486;9.046;2022-10-18T05:51:54;13.90;99.90
16838;DHT22;19510;54.486;9.046;2022-10-18T05:54:20;13.90;99.90
16838;DHT22;19510;54.486;9.046;2022-10-18T05:56:46;13.80;99.90
16838;DHT22;19510;54.486;9.046;2022-10-18T05:59:11;13.90;99.90
16838;DHT22;19510;54.486;9.046;2022-10-18T06:01:38;13.80;99.90
16838;DHT22;19510;54.486;9.046;2022-10-18T06:04:04;13.90;99.90
16838;DHT22;19510;54.486;9.046;2022-10-18T06:06:30;13.90;99.90
16838;DHT22;19510;54.486;9.046;2022-10-18T06:08:57;13.90;99.90
16838;DHT22;19510;54.486;9.046;2022-10-18T06:11:23;13.80;99.90
16838;DHT22;19510;54.486;9.046;2022-10-18T06:13:50;14.00;99.90
16838;DHT22;19510;54.486;9.046;2022-10-18T06:16:18;13.80;99.90
16838;DHT22;19510;54.486;9.046;2022-10-18T06:18:52;13.90;99.90
16838;DHT22;19510;54.486;9.046;2022-10-18T06:21:19;13.90;99.90
16838;DHT22;19510;54.486;9.046;2022-10-18T06:23:51;13.90;99.90
16838;DHT22;19510;54.486;9.046;2022-10-18T06:26:18;13.90;99.90
16838;DHT22;19510;54.486;9.046;2022-10-18T06:28:44;13.80;99.90
16838;DHT22;19510;54.486;9.046;2022-10-18T06:31:10;13.80;99.90
16838;DHT22;19510;54.486;9.046;2022-10-18T06:33:36;13.80;99.90
16838;DHT22;19510;54.486;9.046;2022-10-18T06:36:13;13.80;99.90
16838;DHT22;19510;54.486;9.046;2022-10-18T06:38:39;13.80;99.90
16838;DHT22;19510;54.486;9.046;2022-10-18T06:41:06;13.80;99.90
16838;DHT22;19510;54.486;9.046;2022-10-18T06:43:32;13.80;99.90
16838;DHT22;19510;54.486;9.046;2022-10-18T06:46:00;13.80;99.90
16838;DHT22;19510;54.486;9.046;2022-10-18T06:48:27;13.80;99.90
16838;DHT22;19510;54.486;9.046;2022-10-18T06:50:58;13.80;99.90
16838;DHT22;19510;54.486;9.046;2022-10-18T06:53:32;13.70;99.90
16838;DHT22;19510;54.486;9.046;2022-10-18T06:56:06;13.70;99.90
16838;DHT22;19510;54.486;9.046;2022-10-18T06:58:32;13.70;99.90
16838;DHT22;19510;54.486;9.046;2022-10-18T07:01:08;13.60;99.90
16838;DHT22;19510;54.486;9.046;2022-10-18T07:03:34;13.60;99.90
16838;DHT22;19510;54.486;9.046;2022-10-18T07:06:05;13.60;99.90
16838;DHT22;19510;54.486;9.046;2022-10-18T07:08:31;13.60;99.90
16838;DHT22;19510;54.486;9.046;2022-10-18T07:10:57;13.60;99.90
16838;DHT22;19510;54.486;9.046;2022-10-18T07:13:26;13.50;99.90
16838;DHT22;19510;54.486;9.046;2022-10-18T07:16:05;13.50;99.90
16838;DHT22;19510;54.486;9.046;2022-10-18T07:18:38;13.50;99.90
16838;DHT22;19510;54.486;9.046;2022-10-18T07:21:09;13.50;99.90
16838;DHT22;19510;54.486;9.046;2022-10-18T07:23:37;13.50;99.90
16838;DHT22;19510;54.486;9.046;2022-10-18T07:28:42;13.40;99.90
16838;DHT22;19510;54.486;9.046;2022-10-18T07:31:12;13.40;99.90
16838;DHT22;19510;54.486;9.046;2022-10-18T07:48:06;13.50;99.90
16838;DHT22;19510;54.486;9.046;2022-10-18T07:54:10;13.70;99.90
16838;DHT22;19510;54.486;9.046;2022-10-18T08:00:42;13.80;99.90
16838;DHT22;19510;54.486;9.046;2022-10-18T08:03:19;13.80;99.90
16838;DHT22;19510;54.486;9.046;2022-10-18T08:09:39;13.80;99.90
16838;DHT22;19510;54.486;9.046;2022-10-18T08:12:28;13.90;99.90
16838;DHT22;19510;54.486;9.046;2022-10-18T08:14:53;13.90;99.90
16838;DHT22;19510;54.486;9.046;2022-10-18T08:17:19;13.90;99.90
16838;DHT22;19510;54.486;9.046;2022-10-18T08:20:07;13.90;99.90
16838;DHT22;19510;54.486;9.046;2022-10-18T08:23:02;13.90;99.90
16838;DHT22;19510;54.486;9.046;2022-10-18T08:25:51;13.90;99.90
16838;DHT22;19510;54.486;9.046;2022-10-18T08:28:24;14.00;99.90
16838;DHT22;19510;54.486;9.046;2022-10-18T08:34:32;14.10;99.90
16838;DHT22;19510;54.486;9.046;2022-10-18T08:40:17;14.20;99.90
16838;DHT22;19510;54.486;9.046;2022-10-18T08:46:19;14.10;99.90
16838;DHT22;19510;54.486;9.046;2022-10-18T09:05:30;14.60;99.90
16838;DHT22;19510;54.486;9.046;2022-10-18T09:23:16;14.60;99.90
16838;DHT22;19510;54.486;9.046;2022-10-18T09:30:57;14.80;99.90
16838;DHT22;19510;54.486;9.046;2022-10-18T09:36:04;15.10;99.90
16838;DHT22;19510;54.486;9.046;2022-10-18T09:38:40;15.20;99.90
16838;DHT22;19510;54.486;9.046;2022-10-18T09:41:14;15.20;99.90
16838;DHT22;19510;54.486;9.046;2022-10-18T09:44:00;15.30;99.90
16838;DHT22;19510;54.486;9.046;2022-10-18T09:46:31;15.20;99.90
16838;DHT22;19510;54.486;9.046;2022-10-18T09:49:01;15.20;99.90
16838;DHT22;19510;54.486;9.046;2022-10-18T09:51:36;15.10;99.90
16838;DHT22;19510;54.486;9.046;2022-10-18T09:56:49;15.10;99.90
16838;DHT22;19510;54.486;9.046;2022-10-18T09:59:40;15.20;99.90
16838;DHT22;19510;54.486;9.046;2022-10-18T10:02:12;15.30;99.90
16838;DHT22;19510;54.486;9.046;2022-10-18T10:04:38;15.20;99.90
16838;DHT22;19510;54.486;9.046;2022-10-18T10:07:13;15.20;99.90
16838;DHT22;19510;54.486;9.046;2022-10-18T10:09:46;15.20;99.90
16838;DHT22;19510;54.486;9.046;2022-10-18T10:12:31;15.20;99.90
16838;DHT22;19510;54.486;9.046;2022-10-18T10:20:45;15.40;99.90
16838;DHT22;19510;54.486;9.046;2022-10-18T10:23:22;15.40;99.90
16838;DHT22;19510;54.486;9.046;2022-10-18T10:25:57;15.40;99.90
16838;DHT22;19510;54.486;9.046;2022-10-18T10:28:35;15.40;99.90
16838;DHT22;19510;54.486;9.046;2022-10-18T10:36:32;15.10;99.90
16838;DHT22;19510;54.486;9.046;2022-10-18T10:39:25;15.10;99.90
16838;DHT22;19510;54.486;9.046;2022-10-18T10:41:53;15.00;99.90
16838;DHT22;19510;54.486;9.046;2022-10-18T10:44:22;15.10;99.90
16838;DHT22;19510;54.486;9.046;2022-10-18T10:46:49;15.10;99.90
16838;DHT22;19510;54.486;9.046;2022-10-18T10:49:23;15.30;99.90
16838;DHT22;19510;54.486;9.046;2022-10-18T10:51:59;15.40;99.90
16838;DHT22;19510;54.486;9.046;2022-10-18T10:54:28;15.50;99.90
16838;DHT22;19510;54.486;9.046;2022-10-18T10:57:12;15.60;99.90
16838;DHT22;19510;54.486;9.046;2022-10-18T10:59:46;15.70;99.90
16838;DHT22;19510;54.486;9.046;2022-10-18T11:04:46;15.70;99.90
16838;DHT22;19510;54.486;9.046;2022-10-18T11:07:34;15.60;99.90
16838;DHT22;19510;54.486;9.046;2022-10-18T11:10:11;15.60;99.90
16838;DHT22;19510;54.486;9.046;2022-10-18T11:12:43;15.70;99.90
16838;DHT22;19510;54.486;9.046;2022-10-18T11:20:48;16.00;99.90
16838;DHT22;19510;54.486;9.046;2022-10-18T11:23:19;16.20;99.90
16838;DHT22;19510;54.486;9.046;2022-10-18T11:31:06;15.80;99.90
16838;DHT22;19510;54.486;9.046;2022-10-18T11:34:02;15.60;99.90
16838;DHT22;19510;54.486;9.046;2022-10-18T12:02:24;16.20;99.90
16838;DHT22;19510;54.486;9.046;2022-10-18T12:05:00;16.30;99.90
16838;DHT22;19510;54.486;9.046;2022-10-18T12:07:31;16.30;99.90
16838;DHT22;19510;54.486;9.046;2022-10-18T12:09:59;16.10;99.90
16838;DHT22;19510;54.486;9.046;2022-10-18T12:12:40;16.10;99.90
16838;DHT22;19510;54.486;9.046;2022-10-18T12:15:19;16.00;99.90
16838;DHT22;19510;54.486;9.046;2022-10-18T12:17:54;16.10;99.90
16838;DHT22;19510;54.486;9.046;2022-10-18T12:23:03;16.00;99.90
16838;DHT22;19510;54.486;9.046;2022-10-18T12:25:33;15.80;99.90
16838;DHT22;19510;54.486;9.046;2022-10-18T12:30:46;15.80;99.90
16838;DHT22;19510;54.486;9.046;2022-10-18T12:33:20;15.70;99.90
16838;DHT22;19510;54.486;9.046;2022-10-18T12:39:01;15.70;99.90
16838;DHT22;19510;54.486;9.046;2022-10-18T12:41:32;15.70;99.90
16838;DHT22;19510;54.486;9.046;2022-10-18T12:44:15;15.80;99.90
16838;DHT22;19510;54.486;9.046;2022-10-18T12:46:53;15.80;99.90
16838;DHT22;19510;54.486;9.046;2022-10-18T12:49:34;15.80;99.90
16838;DHT22;19510;54.486;9.046;2022-10-18T12:52:05;15.80;99.90
16838;DHT22;19510;54.486;9.046;2022-10-18T12:54:32;15.70;99.90
16838;DHT22;19510;54.486;9.046;2022-10-18T12:56:59;15.70;99.90
16838;DHT22;19510;54.486;9.046;2022-10-18T13:15:19;15.50;99.90
16838;DHT22;19510;54.486;9.046;2022-10-18T13:17:58;15.50;99.90
16838;DHT22;19510;54.486;9.046;2022-10-18T13:20:36;15.50;99.90
16838;DHT22;19510;54.486;9.046;2022-10-18T13:28:54;15.50;99.90
16838;DHT22;19510;54.486;9.046;2022-10-18T13:37:04;15.40;99.90
16838;DHT22;19510;54.486;9.046;2022-10-18T13:39:34;15.30;99.90
16838;DHT22;19510;54.486;9.046;2022-10-18T14:00:25;15.30;99.90
16838;DHT22;19510;54.486;9.046;2022-10-18T14:11:11;15.30;99.90
16838;DHT22;19510;54.486;9.046;2022-10-18T14:13:45;15.40;99.90
16838;DHT22;19510;54.486;9.046;2022-10-18T14:16:33;15.20;99.90
16838;DHT22;19510;54.486;9.046;2022-10-18T14:19:16;15.20;99.90
16838;DHT22;19510;54.486;9.046;2022-10-18T14:21:51;15.20;99.90
16838;DHT22;19510;54.486;9.046;2022-10-18T14:24:23;15.20;99.90
16838;DHT22;19510;54.486;9.046;2022-10-18T14:27:09;15.20;99.90
16838;DHT22;19510;54.486;9.046;2022-10-18T14:29:37;15.20;99.90
16838;DHT22;19510;54.486;9.046;2022-10-18T14:32:08;15.00;99.90
16838;DHT22;19510;54.486;9.046;2022-10-18T14:34:34;15.00;99.90
16838;DHT22;19510;54.486;9.046;2022-10-18T14:37:00;15.00;99.90
16838;DHT22;19510;54.486;9.046;2022-10-18T14:39:26;14.90;99.90
16838;DHT22;19510;54.486;9.046;2022-10-18T14:41:57;14.90;99.90
16838;DHT22;19510;54.486;9.046;2022-10-18T14:44:30;14.90;99.90
16838;DHT22;19510;54.486;9.046;2022-10-18T14:47:13;14.90;99.90
16838;DHT22;19510;54.486;9.046;2022-10-18T14:49:43;14.90;99.90
16838;DHT22;19510;54.486;9.046;2022-10-18T14:52:13;15.00;99.90
16838;DHT22;19510;54.486;9.046;2022-10-18T14:54:39;15.00;99.90
16838;DHT22;19510;54.486;9.046;2022-10-18T14:57:06;14.90;99.90
16838;DHT22;19510;54.486;9.046;2022-10-18T14:59:45;14.80;99.90
16838;DHT22;19510;54.486;9.046;2022-10-18T15:02:20;14.80;99.90
16838;DHT22;19510;54.486;9.046;2022-10-18T15:04:54;14.80;99.90
16838;DHT22;19510;54.486;9.046;2022-10-18T15:07:21;14.70;99.90
16838;DHT22;19510;54.486;9.046;2022-10-18T15:09:47;14.70;99.90
16838;DHT22;19510;54.486;9.046;2022-10-18T15:12:14;14.70;99.90
16838;DHT22;19510;54.486;9.046;2022-10-18T15:14:41;14.70;99.90
16838;DHT22;19510;54.486;9.046;2022-10-18T15:17:20;14.70;99.90
16838;DHT22;19510;54.486;9.046;2022-10-18T15:19:59;14.60;99.90
16838;DHT22;19510;54.486;9.046;2022-10-18T15:22:28;14.40;99.90
16838;DHT22;19510;54.486;9.046;2022-10-18T15:27:47;14.50;99.90
16838;DHT22;19510;54.486;9.046;2022-10-18T15:30:26;14.30;99.90
16838;DHT22;19510;54.486;9.046;2022-10-18T15:32:55;14.30;99.90
16838;DHT22;19510;54.486;9.046;2022-10-18T15:35:33;14.30;99.90
16838;DHT22;19510;54.486;9.046;2022-10-18T15:38:11;14.20;99.90
16838;DHT22;19510;54.486;9.046;2022-10-18T15:40:38;14.20;99.90
16838;DHT22;19510;54.486;9.046;2022-10-18T15:45:55;14.10;99.90
16838;DHT22;19510;54.486;9.046;2022-10-18T15:48:38;14.00;99.90
16838;DHT22;19510;54.486;9.046;2022-10-18T15:51:18;14.10;99.90
16838;DHT22;19510;54.486;9.046;2022-10-18T15:56:33;14.10;99.90
16838;DHT22;19510;54.486;9.046;2022-10-18T15:59:25;14.00;99.90
16838;DHT22;19510;54.486;9.046;2022-10-18T16:01:53;14.00;99.90
16838;DHT22;19510;54.486;9.046;2022-10-18T16:04:30;14.00;99.90
16838;DHT22;19510;54.486;9.046;2022-10-18T16:06:57;13.90;99.90
16838;DHT22;19510;54.486;9.046;2022-10-18T16:09:25;13.90;99.90
16838;DHT22;19510;54.486;9.046;2022-10-18T16:11:51;13.90;99.90
16838;DHT22;19510;54.486;9.046;2022-10-18T16:14:18;13.90;99.90
16838;DHT22;19510;54.486;9.046;2022-10-18T16:16:44;13.90;99.90
16838;DHT22;19510;54.486;9.046;2022-10-18T16:19:15;13.80;99.90
16838;DHT22;19510;54.486;9.046;2022-10-18T16:21:47;13.80;99.90
16838;DHT22;19510;54.486;9.046;2022-10-18T16:24:12;13.80;99.90
16838;DHT22;19510;54.486;9.046;2022-10-18T16:26:38;13.80;99.90
16838;DHT22;19510;54.486;9.046;2022-10-18T16:29:04;13.70;99.90
16838;DHT22;19510;54.486;9.046;2022-10-18T16:31:32;13.70;99.90
16838;DHT22;19510;54.486;9.046;2022-10-18T16:33:59;13.60;99.90
16838;DHT22;19510;54.486;9.046;2022-10-18T16:36:29;13.60;99.90
16838;DHT22;19510;54.486;9.046;2022-10-18T16:38:59;13.60;99.90
16838;DHT22;19510;54.486;9.046;2022-10-18T16:41:25;13.60;99.90
16838;DHT22;19510;54.486;9.046;2022-10-18T16:43:51;13.50;99.90
16838;DHT22;19510;54.486;9.046;2022-10-18T16:46:23;13.60;99.90
16838;DHT22;19510;54.486;9.046;2022-10-18T16:48:50;13.50;99.90
16838;DHT22;19510;54.486;9.046;2022-10-18T16:51:19;13.50;99.90
16838;DHT22;19510;54.486;9.046;2022-10-18T16:53:45;13.50;99.90
16838;DHT22;19510;54.486;9.046;2022-10-18T16:56:30;13.40;99.90
16838;DHT22;19510;54.486;9.046;2022-10-18T16:58:59;13.40;99.90
16838;DHT22;19510;54.486;9.046;2022-10-18T17:01:26;13.40;99.90
16838;DHT22;19510;54.486;9.046;2022-10-18T17:03:52;13.40;99.90
16838;DHT22;19510;54.486;9.046;2022-10-18T17:06:24;13.50;99.90
16838;DHT22;19510;54.486;9.046;2022-10-18T17:08:51;13.40;99.90
16838;DHT22;19510;54.486;9.046;2022-10-18T17:11:18;13.40;99.90
16838;DHT22;19510;54.486;9.046;2022-10-18T17:13:44;13.40;99.90
16838;DHT22;19510;54.486;9.046;2022-10-18T17:18:47;13.30;99.90
16838;DHT22;19510;54.486;9.046;2022-10-18T17:21:13;13.30;99.90
16838;DHT22;19510;54.486;9.046;2022-10-18T17:23:38;13.40;99.90
16838;DHT22;19510;54.486;9.046;2022-10-18T17:26:04;13.30;99.90
16838;DHT22;19510;54.486;9.046;2022-10-18T17:28:30;13.30;99.90
16838;DHT22;19510;54.486;9.046;2022-10-18T17:30:56;13.30;99.90
16838;DHT22;19510;54.486;9.046;2022-10-18T17:33:21;13.30;99.90
16838;DHT22;19510;54.486;9.046;2022-10-18T17:35:47;13.30;99.90
16838;DHT22;19510;54.486;9.046;2022-10-18T17:38:19;13.30;99.90
16838;DHT22;19510;54.486;9.046;2022-10-18T17:40:44;13.20;99.90
16838;DHT22;19510;54.486;9.046;2022-10-18T17:43:10;13.20;99.90
16838;DHT22;19510;54.486;9.046;2022-10-18T17:45:48;13.20;99.90
16838;DHT22;19510;54.486;9.046;2022-10-18T17:48:15;13.20;99.90
16838;DHT22;19510;54.486;9.046;2022-10-18T17:50:47;13.20;99.90
16838;DHT22;19510;54.486;9.046;2022-10-18T17:53:25;13.20;99.90
16838;DHT22;19510;54.486;9.046;2022-10-18T17:59:11;13.20;99.90
16838;DHT22;19510;54.486;9.046;2022-10-18T18:01:42;13.20;99.90
16838;DHT22;19510;54.486;9.046;2022-10-18T18:11:07;13.30;99.90
16838;DHT22;19510;54.486;9.046;2022-10-18T18:16:55;13.30;99.90
16838;DHT22;19510;54.486;9.046;2022-10-18T18:22:32;13.20;99.90
16838;DHT22;19510;54.486;9.046;2022-10-18T18:25:40;13.20;99.90
16838;DHT22;19510;54.486;9.046;2022-10-18T18:28:24;13.20;99.90
16838;DHT22;19510;54.486;9.046;2022-10-18T18:34:26;13.00;99.90
16838;DHT22;19510;54.486;9.046;2022-10-18T18:47:04;12.60;99.90
16838;DHT22;19510;54.486;9.046;2022-10-18T18:50:04;12.60;99.90
16838;DHT22;19510;54.486;9.046;2022-10-18T18:56:11;12.60;99.90
16838;DHT22;19510;54.486;9.046;2022-10-18T18:58:43;12.70;99.90
16838;DHT22;19510;54.486;9.046;2022-10-18T19:01:13;12.50;99.90
16838;DHT22;19510;54.486;9.046;2022-10-18T19:03:43;12.60;99.90
16838;DHT22;19510;54.486;9.046;2022-10-18T19:06:12;12.60;99.90
16838;DHT22;19510;54.486;9.046;2022-10-18T19:08:39;12.70;99.90
16838;DHT22;19510;54.486;9.046;2022-10-18T19:11:06;12.60;99.90
16838;DHT22;19510;54.486;9.046;2022-10-18T19:13:33;12.60;99.90
16838;DHT22;19510;54.486;9.046;2022-10-18T19:18:53;12.70;99.90
16838;DHT22;19510;54.486;9.046;2022-10-18T19:21:20;12.70;99.90
16838;DHT22;19510;54.486;9.046;2022-10-18T19:23:46;12.80;99.90
16838;DHT22;19510;54.486;9.046;2022-10-18T19:29:06;12.70;99.90
16838;DHT22;19510;54.486;9.046;2022-10-18T19:31:37;12.70;99.90
16838;DHT22;19510;54.486;9.046;2022-10-18T19:34:04;12.70;99.90
16838;DHT22;19510;54.486;9.046;2022-10-18T19:36:30;12.70;99.90
16838;DHT22;19510;54.486;9.046;2022-10-18T19:38:56;12.70;99.90
16838;DHT22;19510;54.486;9.046;2022-10-18T19:41:22;12.70;99.90
16838;DHT22;19510;54.486;9.046;2022-10-18T19:43:49;12.80;99.90
16838;DHT22;19510;54.486;9.046;2022-10-18T19:46:15;12.70;99.90
16838;DHT22;19510;54.486;9.046;2022-10-18T19:48:41;12.70;99.90
16838;DHT22;19510;54.486;9.046;2022-10-18T19:51:07;12.70;99.90
16838;DHT22;19510;54.486;9.046;2022-10-18T19:53:33;12.70;99.90
16838;DHT22;19510;54.486;9.046;2022-10-18T19:56:03;12.70;99.90
16838;DHT22;19510;54.486;9.046;2022-10-18T19:58:32;12.70;99.90
16838;DHT22;19510;54.486;9.046;2022-10-18T20:00:58;12.60;99.90
16838;DHT22;19510;54.486;9.046;2022-10-18T20:17:35;12.70;99.90
16838;DHT22;19510;54.486;9.046;2022-10-18T20:20:04;12.70;99.90
16838;DHT22;19510;54.486;9.046;2022-10-18T20:22:56;12.70;99.90
16838;DHT22;19510;54.486;9.046;2022-10-18T20:25:22;12.70;99.90
16838;DHT22;19510;54.486;9.046;2022-10-18T20:27:47;12.80;99.90
16838;DHT22;19510;54.486;9.046;2022-10-18T20:30:14;12.90;99.90
16838;DHT22;19510;54.486;9.046;2022-10-18T20:32:39;12.80;99.90
16838;DHT22;19510;54.486;9.046;2022-10-18T20:35:06;12.80;99.90
16838;DHT22;19510;54.486;9.046;2022-10-18T20:37:32;12.80;99.90
16838;DHT22;19510;54.486;9.046;2022-10-18T20:39:58;12.70;99.90
16838;DHT22;19510;54.486;9.046;2022-10-18T20:42:24;12.70;99.90
16838;DHT22;19510;54.486;9.046;2022-10-18T20:44:50;12.60;99.90
16838;DHT22;19510;54.486;9.046;2022-10-18T21:27:13;12.40;99.90
16838;DHT22;19510;54.486;9.046;2022-10-18T21:29:38;12.40;99.90
16838;DHT22;19510;54.486;9.046;2022-10-18T21:32:04;12.50;99.90
16838;DHT22;19510;54.486;9.046;2022-10-18T21:34:30;12.30;99.90
16838;DHT22;19510;54.486;9.046;2022-10-18T21:43:48;12.40;99.90
16838;DHT22;19510;54.486;9.046;2022-10-18T21:46:15;12.40;99.90
16838;DHT22;19510;54.486;9.046;2022-10-18T21:48:46;12.40;99.90
16838;DHT22;19510;54.486;9.046;2022-10-18T21:51:14;12.40;99.90
16838;DHT22;19510;54.486;9.046;2022-10-18T21:53:44;12.40;99.90
16838;DHT22;19510;54.486;9.046;2022-10-18T21:56:12;12.40;99.90
16838;DHT22;19510;54.486;9.046;2022-10-18T21:58:39;12.50;99.90
16838;DHT22;19510;54.486;9.046;2022-10-18T22:01:07;12.50;99.90
16838;DHT22;19510;54.486;9.046;2022-10-18T22:03:32;12.50;99.90
16838;DHT22;19510;54.486;9.046;2022-10-18T22:06:04;12.50;99.90
16838;DHT22;19510;54.486;9.046;2022-10-18T22:08:37;12.50;99.90
16838;DHT22;19510;54.486;9.046;2022-10-18T22:11:03;12.50;99.90
16838;DHT22;19510;54.486;9.046;2022-10-18T22:13:32;12.50;99.90
16838;DHT22;19510;54.486;9.046;2022-10-18T22:16:01;12.50;99.90
16838;DHT22;19510;54.486;9.046;2022-10-18T22:18:28;12.50;99.90
16838;DHT22;19510;54.486;9.046;2022-10-18T22:21:04;12.50;99.90
16838;DHT22;19510;54.486;9.046;2022-10-18T22:23:36;12.40;99.90
16838;DHT22;19510;54.486;9.046;2022-10-18T22:26:10;12.60;99.90
16838;DHT22;19510;54.486;9.046;2022-10-18T22:28:37;12.60;99.90
16838;DHT22;19510;54.486;9.046;2022-10-18T22:31:11;12.60;99.90
16838;DHT22;19510;54.486;9.046;2022-10-18T22:33:37;12.60;99.90
16838;DHT22;19510;54.486;9.046;2022-10-18T22:36:03;12.60;99.90
16838;DHT22;19510;54.486;9.046;2022-10-18T22:38:32;12.60;99.90
16838;DHT22;19510;54.486;9.046;2022-10-18T22:41:02;12.60;99.90
16838;DHT22;19510;54.486;9.046;2022-10-18T22:43:28;12.60;99.90
16838;DHT22;19510;54.486;9.046;2022-10-18T22:45:54;12.50;99.90
16838;DHT22;19510;54.486;9.046;2022-10-18T22:48:22;12.60;99.90
16838;DHT22;19510;54.486;9.046;2022-10-18T22:50:47;12.60;99.90
16838;DHT22;19510;54.486;9.046;2022-10-18T22:53:13;12.50;99.90
16838;DHT22;19510;54.486;9.046;2022-10-18T22:55:38;12.50;99.90
16838;DHT22;19510;54.486;9.046;2022-10-18T22:58:06;12.60;99.90
16838;DHT22;19510;54.486;9.046;2022-10-18T23:00:32;12.50;99.90
16838;DHT22;19510;54.486;9.046;2022-10-18T23:02:57;12.50;99.90
16838;DHT22;19510;54.486;9.046;2022-10-18T23:05:23;12.40;99.90
16838;DHT22;19510;54.486;9.046;2022-10-18T23:07:49;12.50;99.90
16838;DHT22;19510;54.486;9.046;2022-10-18T23:10:15;12.40;99.90
16838;DHT22;19510;54.486;9.046;2022-10-18T23:12:40;12.50;99.90
16838;DHT22;19510;54.486;9.046;2022-10-18T23:15:07;12.50;99.90
16838;DHT22;19510;54.486;9.046;2022-10-18T23:17:32;12.50;99.90
16838;DHT22;19510;54.486;9.046;2022-10-18T23:20:00;12.50;99.90
16838;DHT22;19510;54.486;9.046;2022-10-18T23:22:26;12.50;99.90
16838;DHT22;19510;54.486;9.046;2022-10-18T23:24:51;12.50;99.90
16838;DHT22;19510;54.486;9.046;2022-10-18T23:27:17;12.50;99.90
16838;DHT22;19510;54.486;9.046;2022-10-18T23:29:42;12.50;99.90
16838;DHT22;19510;54.486;9.046;2022-10-18T23:32:08;12.50;99.90
16838;DHT22;19510;54.486;9.046;2022-10-18T23:34:34;12.50;99.90
16838;DHT22;19510;54.486;9.046;2022-10-18T23:36:59;12.60;99.90
16838;DHT22;19510;54.486;9.046;2022-10-18T23:39:25;12.50;99.90
16838;DHT22;19510;54.486;9.046;2022-10-18T23:41:50;12.50;99.90
16838;DHT22;19510;54.486;9.046;2022-10-18T23:44:16;12.70;99.90
16838;DHT22;19510;54.486;9.046;2022-10-18T23:46:41;12.50;99.90
16838;DHT22;19510;54.486;9.046;2022-10-18T23:49:07;12.50;99.90
16838;DHT22;19510;54.486;9.046;2022-10-18T23:51:33;12.50;99.90
16838;DHT22;19510;54.486;9.046;2022-10-18T23:54:00;12.50;99.90
16838;DHT22;19510;54.486;9.046;2022-10-18T23:56:26;12.50;99.90
16838;DHT22;19510;54.486;9.046;2022-10-18T23:58:52;12.50;99.90
